sensor_id;sensor_type;location;lat;lon;timestamp;pressure;altitude;pressure_sealevel;temperature;humidity
25610;BME280;13479;49.044;8.716;2023-04-10T04:01:23;99398.75;;;6.41;60.67
25610;BME280;13479;49.044;8.716;2023-04-10T04:03:49;99393.56;;;6.39;60.73
25610;BME280;13479;49.044;8.716;2023-04-10T04:06:14;99393.09;;;6.32;60.48
25610;BME280;13479;49.044;8.716;2023-04-10T04:08:39;99399.94;;;6.49;59.75
25610;BME280;13479;49.044;8.716;2023-04-10T04:11:05;99415.78;;;6.49;59.59
25610;BME280;13479;49.044;8.716;2023-04-10T04:13:30;99408.56;;;6.39;59.88
25610;BME280;13479;49.044;8.716;2023-04-10T04:15:56;99413.34;;;6.46;60.25
25610;BME280;13479;49.044;8.716;2023-04-10T04:18:21;99416.16;;;6.43;59.77
25610;BME280;13479;49.044;8.716;2023-04-10T04:20:46;99418.06;;;6.41;60.21
25610;BME280;13479;49.044;8.716;2023-04-10T04:23:11;99416.00;;;6.46;59.56
25610;BME280;13479;49.044;8.716;2023-04-10T04:25:37;99418.53;;;6.48;59.99
25610;BME280;13479;49.044;8.716;2023-04-10T04:28:02;99435.19;;;6.48;60.11
25610;BME280;13479;49.044;8.716;2023-04-10T04:30:27;99440.66;;;6.45;59.82
25610;BME280;13479;49.044;8.716;2023-04-10T04:32:52;99445.06;;;6.45;59.84
25610;BME280;13479;49.044;8.716;2023-04-10T04:35:18;99450.81;;;6.52;59.76
25610;BME280;13479;49.044;8.716;2023-04-10T04:37:43;99463.91;;;6.53;59.88
25610;BME280;13479;49.044;8.716;2023-04-10T04:40:09;99480.13;;;6.47;59.44
25610;BME280;13479;49.044;8.716;2023-04-10T04:42:34;99490.78;;;6.45;59.35
25610;BME280;13479;49.044;8.716;2023-04-10T04:44:59;99496.31;;;6.55;59.30
25610;BME280;13479;49.044;8.716;2023-04-10T04:47:25;99505.09;;;6.56;58.99
25610;BME280;13479;49.044;8.716;2023-04-10T04:49:50;99511.84;;;6.60;59.29
25610;BME280;13479;49.044;8.716;2023-04-10T04:52:15;99519.41;;;6.52;59.17
25610;BME280;13479;49.044;8.716;2023-04-10T04:54:41;99504.22;;;6.55;59.13
25610;BME280;13479;49.044;8.716;2023-04-10T04:57:06;99518.84;;;6.61;59.03
25610;BME280;13479;49.044;8.716;2023-04-10T04:59:31;99531.84;;;6.64;59.16
25610;BME280;13479;49.044;8.716;2023-04-10T05:01:56;99523.16;;;6.62;59.07
25610;BME280;13479;49.044;8.716;2023-04-10T05:04:22;99525.44;;;6.68;58.78
25610;BME280;13479;49.044;8.716;2023-04-10T05:06:47;99525.44;;;6.68;59.59
25610;BME280;13479;49.044;8.716;2023-04-10T05:09:13;99528.81;;;6.70;58.96
25610;BME280;13479;49.044;8.716;2023-04-10T05:11:38;99519.97;;;6.71;58.98
25610;BME280;13479;49.044;8.716;2023-04-10T05:14:03;99516.00;;;6.64;59.43
25610;BME280;13479;49.044;8.716;2023-04-10T05:16:28;99508.75;;;6.68;59.46
25610;BME280;13479;49.044;8.716;2023-04-10T05:18:54;99515.63;;;6.70;59.38
25610;BME280;13479;49.044;8.716;2023-04-10T05:21:19;99504.88;;;6.73;59.77
25610;BME280;13479;49.044;8.716;2023-04-10T05:23:45;99508.69;;;6.69;59.30
25610;BME280;13479;49.044;8.716;2023-04-10T05:26:10;99508.16;;;6.77;58.99
25610;BME280;13479;49.044;8.716;2023-04-10T05:28:35;99521.06;;;6.82;58.57
25610;BME280;13479;49.044;8.716;2023-04-10T05:31:00;99541.66;;;6.91;58.92
25610;BME280;13479;49.044;8.716;2023-04-10T05:33:26;99556.72;;;7.03;58.68
25610;BME280;13479;49.044;8.716;2023-04-10T05:35:51;99586.31;;;7.08;58.20
25610;BME280;13479;49.044;8.716;2023-04-10T05:38:17;99600.13;;;7.26;57.66
25610;BME280;13479;49.044;8.716;2023-04-10T05:40:46;99617.75;;;7.40;57.86
25610;BME280;13479;49.044;8.716;2023-04-10T05:43:11;99654.19;;;7.77;56.06
25610;BME280;13479;49.044;8.716;2023-04-10T05:45:37;99674.22;;;7.94;55.45
25610;BME280;13479;49.044;8.716;2023-04-10T05:48:03;99667.13;;;8.09;55.31
25610;BME280;13479;49.044;8.716;2023-04-10T05:50:28;99672.38;;;8.37;54.13
25610;BME280;13479;49.044;8.716;2023-04-10T05:52:53;99657.66;;;8.32;54.13
25610;BME280;13479;49.044;8.716;2023-04-10T05:55:19;99659.44;;;8.59;53.34
25610;BME280;13479;49.044;8.716;2023-04-10T05:57:44;99671.84;;;8.72;52.50
25610;BME280;13479;49.044;8.716;2023-04-10T06:00:10;99668.13;;;8.87;51.97
25610;BME280;13479;49.044;8.716;2023-04-10T06:02:36;99655.84;;;8.86;52.46
25610;BME280;13479;49.044;8.716;2023-04-10T06:05:01;99650.75;;;8.96;52.49
25610;BME280;13479;49.044;8.716;2023-04-10T06:07:26;99647.44;;;9.18;51.89
25610;BME280;13479;49.044;8.716;2023-04-10T06:09:52;99661.75;;;9.66;50.76
25610;BME280;13479;49.044;8.716;2023-04-10T06:12:18;99657.50;;;10.25;49.09
25610;BME280;13479;49.044;8.716;2023-04-10T06:14:43;99665.50;;;10.72;47.59
25610;BME280;13479;49.044;8.716;2023-04-10T06:17:08;99648.78;;;11.28;45.93
25610;BME280;13479;49.044;8.716;2023-04-10T06:19:33;99655.25;;;12.25;44.09
25610;BME280;13479;49.044;8.716;2023-04-10T06:21:59;99644.69;;;13.08;42.55
25610;BME280;13479;49.044;8.716;2023-04-10T06:24:24;99647.47;;;13.78;40.52
25610;BME280;13479;49.044;8.716;2023-04-10T06:26:49;99652.41;;;14.61;39.36
25610;BME280;13479;49.044;8.716;2023-04-10T06:29:15;99649.66;;;15.38;37.77
25610;BME280;13479;49.044;8.716;2023-04-10T06:31:40;99654.69;;;15.97;37.01
25610;BME280;13479;49.044;8.716;2023-04-10T06:34:05;99651.97;;;16.25;35.66
25610;BME280;13479;49.044;8.716;2023-04-10T06:36:31;99651.94;;;16.43;35.12
25610;BME280;13479;49.044;8.716;2023-04-10T06:38:57;99656.94;;;16.20;35.49
25610;BME280;13479;49.044;8.716;2023-04-10T06:41:22;99663.03;;;16.30;35.54
25610;BME280;13479;49.044;8.716;2023-04-10T06:43:47;99668.06;;;16.70;34.74
25610;BME280;13479;49.044;8.716;2023-04-10T06:46:13;99662.19;;;16.66;34.53
25610;BME280;13479;49.044;8.716;2023-04-10T06:48:39;99653.66;;;16.71;34.82
25610;BME280;13479;49.044;8.716;2023-04-10T06:51:05;99670.16;;;16.84;34.17
25610;BME280;13479;49.044;8.716;2023-04-10T06:53:31;99660.06;;;16.96;33.95
25610;BME280;13479;49.044;8.716;2023-04-10T06:55:56;99656.06;;;17.35;33.21
25610;BME280;13479;49.044;8.716;2023-04-10T06:58:21;99655.81;;;17.54;32.72
25610;BME280;13479;49.044;8.716;2023-04-10T07:00:48;99653.25;;;17.96;32.10
25610;BME280;13479;49.044;8.716;2023-04-10T07:03:13;99652.63;;;18.76;31.66
25610;BME280;13479;49.044;8.716;2023-04-10T07:05:39;99658.81;;;19.10;30.51
25610;BME280;13479;49.044;8.716;2023-04-10T07:08:04;99649.59;;;19.04;30.44
25610;BME280;13479;49.044;8.716;2023-04-10T07:10:30;99656.22;;;19.33;30.11
25610;BME280;13479;49.044;8.716;2023-04-10T07:12:55;99661.97;;;19.22;29.73
25610;BME280;13479;49.044;8.716;2023-04-10T07:15:22;99655.34;;;19.41;29.11
25610;BME280;13479;49.044;8.716;2023-04-10T07:17:48;99660.09;;;19.70;28.85
25610;BME280;13479;49.044;8.716;2023-04-10T07:20:13;99657.59;;;20.00;28.33
25610;BME280;13479;49.044;8.716;2023-04-10T07:22:38;99641.63;;;20.60;28.08
25610;BME280;13479;49.044;8.716;2023-04-10T07:25:05;99656.41;;;21.03;26.95
25610;BME280;13479;49.044;8.716;2023-04-10T07:27:31;99639.19;;;21.19;26.48
25610;BME280;13479;49.044;8.716;2023-04-10T07:29:56;99634.44;;;21.66;26.18
25610;BME280;13479;49.044;8.716;2023-04-10T07:32:22;99640.50;;;21.38;25.59
25610;BME280;13479;49.044;8.716;2023-04-10T07:34:47;99641.50;;;22.03;25.10
25610;BME280;13479;49.044;8.716;2023-04-10T07:37:13;99634.44;;;21.66;25.42
25610;BME280;13479;49.044;8.716;2023-04-10T07:39:38;99645.78;;;21.76;25.37
25610;BME280;13479;49.044;8.716;2023-04-10T07:42:03;99639.56;;;21.45;25.62
25610;BME280;13479;49.044;8.716;2023-04-10T07:44:29;99643.38;;;21.66;24.92
25610;BME280;13479;49.044;8.716;2023-04-10T07:46:54;99643.13;;;21.98;24.58
25610;BME280;13479;49.044;8.716;2023-04-10T07:49:20;99630.19;;;21.93;24.88
25610;BME280;13479;49.044;8.716;2023-04-10T07:51:45;99624.38;;;21.59;24.89
25610;BME280;13479;49.044;8.716;2023-04-10T07:54:10;99633.91;;;21.25;25.45
25610;BME280;13479;49.044;8.716;2023-04-10T07:56:36;99633.63;;;21.20;25.78
25610;BME280;13479;49.044;8.716;2023-04-10T07:59:01;99622.53;;;21.15;25.33
25610;BME280;13479;49.044;8.716;2023-04-10T08:01:27;99618.16;;;21.44;25.13
25610;BME280;13479;49.044;8.716;2023-04-10T08:03:53;99628.94;;;21.29;24.57
25610;BME280;13479;49.044;8.716;2023-04-10T08:06:19;99626.91;;;20.86;25.36
25610;BME280;13479;49.044;8.716;2023-04-10T08:08:44;99620.13;;;21.20;25.15
25610;BME280;13479;49.044;8.716;2023-04-10T08:11:27;99619.38;;;21.26;25.27
25610;BME280;13479;49.044;8.716;2023-04-10T08:13:54;99624.38;;;21.96;24.31
25610;BME280;13479;49.044;8.716;2023-04-10T08:16:23;99621.22;;;22.14;24.27
25610;BME280;13479;49.044;8.716;2023-04-10T08:18:48;99614.91;;;21.85;24.89
25610;BME280;13479;49.044;8.716;2023-04-10T08:21:14;99615.78;;;22.58;24.27
25610;BME280;13479;49.044;8.716;2023-04-10T08:23:39;99617.50;;;22.65;24.13
25610;BME280;13479;49.044;8.716;2023-04-10T08:26:05;99618.78;;;23.33;23.99
25610;BME280;13479;49.044;8.716;2023-04-10T08:28:30;99619.47;;;24.51;22.73
25610;BME280;13479;49.044;8.716;2023-04-10T08:30:56;99618.66;;;24.50;22.41
25610;BME280;13479;49.044;8.716;2023-04-10T08:33:22;99619.06;;;24.14;22.92
25610;BME280;13479;49.044;8.716;2023-04-10T08:35:47;99629.94;;;24.20;22.75
25610;BME280;13479;49.044;8.716;2023-04-10T08:38:13;99619.06;;;24.14;22.74
25610;BME280;13479;49.044;8.716;2023-04-10T08:40:38;99620.94;;;24.60;21.95
25610;BME280;13479;49.044;8.716;2023-04-10T08:43:03;99610.28;;;24.39;22.39
25610;BME280;13479;49.044;8.716;2023-04-10T08:45:29;99620.31;;;24.18;22.26
25610;BME280;13479;49.044;8.716;2023-04-10T08:47:57;99619.06;;;24.14;22.29
25610;BME280;13479;49.044;8.716;2023-04-10T08:50:22;99606.94;;;24.50;22.42
25610;BME280;13479;49.044;8.716;2023-04-10T08:52:50;99609.63;;;25.10;21.76
25610;BME280;13479;49.044;8.716;2023-04-10T08:55:17;99598.94;;;25.16;21.57
25610;BME280;13479;49.044;8.716;2023-04-10T08:57:43;99603.16;;;25.05;21.05
25610;BME280;13479;49.044;8.716;2023-04-10T09:00:10;99587.00;;;25.23;21.43
25610;BME280;13479;49.044;8.716;2023-04-10T09:02:37;99596.81;;;25.24;20.91
25610;BME280;13479;49.044;8.716;2023-04-10T09:05:04;99580.91;;;25.28;21.47
25610;BME280;13479;49.044;8.716;2023-04-10T09:07:31;99589.88;;;25.28;21.58
25610;BME280;13479;49.044;8.716;2023-04-10T09:09:56;99582.56;;;24.36;21.43
25610;BME280;13479;49.044;8.716;2023-04-10T09:12:21;99581.41;;;23.77;21.93
25610;BME280;13479;49.044;8.716;2023-04-10T09:14:47;99572.72;;;24.15;22.00
25610;BME280;13479;49.044;8.716;2023-04-10T09:17:21;99573.69;;;23.67;22.63
25610;BME280;13479;49.044;8.716;2023-04-10T09:19:53;99552.28;;;24.33;22.52
25610;BME280;13479;49.044;8.716;2023-04-10T09:22:33;99567.72;;;24.12;21.75
25610;BME280;13479;49.044;8.716;2023-04-10T09:25:00;99554.72;;;23.67;22.12
25610;BME280;13479;49.044;8.716;2023-04-10T09:27:33;99570.91;;;23.05;22.29
25610;BME280;13479;49.044;8.716;2023-04-10T09:30:00;99542.34;;;22.61;23.23
25610;BME280;13479;49.044;8.716;2023-04-10T09:32:46;99541.50;;;22.95;22.75
25610;BME280;13479;49.044;8.716;2023-04-10T09:35:13;99538.84;;;23.57;21.94
25610;BME280;13479;49.044;8.716;2023-04-10T09:37:39;99529.75;;;22.81;22.70
25610;BME280;13479;49.044;8.716;2023-04-10T09:40:18;99523.88;;;23.13;22.82
25610;BME280;13479;49.044;8.716;2023-04-10T09:42:44;99508.38;;;23.35;23.01
25610;BME280;13479;49.044;8.716;2023-04-10T09:45:10;99500.13;;;24.11;22.26
25610;BME280;13479;49.044;8.716;2023-04-10T09:47:35;99500.41;;;24.88;21.53
25610;BME280;13479;49.044;8.716;2023-04-10T09:50:01;99498.97;;;25.31;20.66
25610;BME280;13479;49.044;8.716;2023-04-10T09:52:29;99498.94;;;24.92;20.64
25610;BME280;13479;49.044;8.716;2023-04-10T09:54:57;99502.56;;;24.59;21.43
25610;BME280;13479;49.044;8.716;2023-04-10T09:57:26;99498.00;;;23.86;21.30
25610;BME280;13479;49.044;8.716;2023-04-10T09:59:53;99485.50;;;23.85;21.23
25610;BME280;13479;49.044;8.716;2023-04-10T10:02:21;99485.69;;;23.77;21.59
25610;BME280;13479;49.044;8.716;2023-04-10T10:04:47;99482.56;;;23.93;21.28
25610;BME280;13479;49.044;8.716;2023-04-10T10:07:19;99476.94;;;23.74;21.54
25610;BME280;13479;49.044;8.716;2023-04-10T10:09:46;99479.25;;;23.78;21.03
25610;BME280;13479;49.044;8.716;2023-04-10T10:12:15;99473.81;;;23.57;20.92
25610;BME280;13479;49.044;8.716;2023-04-10T10:17:17;99459.22;;;23.79;20.71
25610;BME280;13479;49.044;8.716;2023-04-10T10:20:01;99454.84;;;23.78;21.04
25610;BME280;13479;49.044;8.716;2023-04-10T10:22:27;99455.88;;;23.77;21.32
25610;BME280;13479;49.044;8.716;2023-04-10T10:24:53;99446.13;;;24.02;20.55
25610;BME280;13479;49.044;8.716;2023-04-10T10:27:22;99451.69;;;23.94;21.29
25610;BME280;13479;49.044;8.716;2023-04-10T10:29:48;99439.59;;;24.30;21.39
25610;BME280;13479;49.044;8.716;2023-04-10T10:32:16;99445.47;;;24.07;20.13
25610;BME280;13479;49.044;8.716;2023-04-10T10:34:43;99439.00;;;24.08;20.11
25610;BME280;13479;49.044;8.716;2023-04-10T10:37:10;99428.81;;;24.03;20.07
25610;BME280;13479;49.044;8.716;2023-04-10T10:45:16;99429.78;;;23.28;20.44
25610;BME280;13479;49.044;8.716;2023-04-10T10:47:50;99422.50;;;23.36;20.99
25610;BME280;13479;49.044;8.716;2023-04-10T10:50:15;99428.34;;;23.46;20.72
25610;BME280;13479;49.044;8.716;2023-04-10T10:52:48;99436.78;;;23.09;20.67
25610;BME280;13479;49.044;8.716;2023-04-10T10:58:02;99418.78;;;23.97;20.41
25610;BME280;13479;49.044;8.716;2023-04-10T11:06:00;99419.16;;;23.27;20.26
25610;BME280;13479;49.044;8.716;2023-04-10T11:08:35;99412.13;;;22.77;20.79
25610;BME280;13479;49.044;8.716;2023-04-10T11:11:04;99407.69;;;22.63;21.49
25610;BME280;13479;49.044;8.716;2023-04-10T11:13:31;99403.41;;;22.40;21.18
25610;BME280;13479;49.044;8.716;2023-04-10T11:15:59;99396.88;;;21.93;21.37
25610;BME280;13479;49.044;8.716;2023-04-10T11:21:20;99386.72;;;21.23;22.47
25610;BME280;13479;49.044;8.716;2023-04-10T11:28:58;99356.59;;;20.31;22.90
25610;BME280;13479;49.044;8.716;2023-04-10T11:31:24;99349.56;;;20.00;24.10
25610;BME280;13479;49.044;8.716;2023-04-10T11:34:03;99339.69;;;19.92;23.79
25610;BME280;13479;49.044;8.716;2023-04-10T11:36:30;99333.59;;;19.98;24.78
25610;BME280;13479;49.044;8.716;2023-04-10T11:39:01;99330.50;;;20.01;24.09
25610;BME280;13479;49.044;8.716;2023-04-10T11:41:27;99316.00;;;20.02;22.96
25610;BME280;13479;49.044;8.716;2023-04-10T11:43:54;99313.88;;;19.98;22.69
25610;BME280;13479;49.044;8.716;2023-04-10T11:46:19;99299.16;;;19.85;23.24
25610;BME280;13479;49.044;8.716;2023-04-10T11:48:45;99301.75;;;19.79;23.31
25610;BME280;13479;49.044;8.716;2023-04-10T11:51:12;99285.16;;;19.90;24.47
25610;BME280;13479;49.044;8.716;2023-04-10T11:53:39;99290.28;;;20.00;22.99
25610;BME280;13479;49.044;8.716;2023-04-10T11:56:13;99283.56;;;20.26;23.52
25610;BME280;13479;49.044;8.716;2023-04-10T11:58:38;99268.84;;;20.28;23.71
25610;BME280;13479;49.044;8.716;2023-04-10T12:01:04;99270.06;;;20.62;23.04
25610;BME280;13479;49.044;8.716;2023-04-10T12:03:40;99278.03;;;20.71;22.39
25610;BME280;13479;49.044;8.716;2023-04-10T12:06:07;99279.59;;;20.80;22.89
25610;BME280;13479;49.044;8.716;2023-04-10T12:08:38;99273.44;;;20.86;22.18
25610;BME280;13479;49.044;8.716;2023-04-10T12:11:04;99286.53;;;20.89;20.59
25610;BME280;13479;49.044;8.716;2023-04-10T12:13:31;99283.44;;;20.92;21.33
25610;BME280;13479;49.044;8.716;2023-04-10T12:15:58;99284.59;;;20.83;20.97
25610;BME280;13479;49.044;8.716;2023-04-10T12:18:26;99284.53;;;20.76;21.27
25610;BME280;13479;49.044;8.716;2023-04-10T12:20:53;99281.25;;;20.81;20.29
25610;BME280;13479;49.044;8.716;2023-04-10T12:23:22;99279.91;;;20.70;20.59
25610;BME280;13479;49.044;8.716;2023-04-10T12:25:48;99273.47;;;20.71;20.88
25610;BME280;13479;49.044;8.716;2023-04-10T12:28:20;99275.50;;;20.84;20.54
25610;BME280;13479;49.044;8.716;2023-04-10T12:30:50;99275.94;;;20.88;20.71
25610;BME280;13479;49.044;8.716;2023-04-10T12:33:23;99280.38;;;20.95;20.94
25610;BME280;13479;49.044;8.716;2023-04-10T12:35:49;99279.69;;;21.15;20.51
25610;BME280;13479;49.044;8.716;2023-04-10T12:38:34;99276.66;;;21.25;20.35
25610;BME280;13479;49.044;8.716;2023-04-10T12:40:59;99280.00;;;21.27;20.38
25610;BME280;13479;49.044;8.716;2023-04-10T12:45:59;99267.44;;;21.12;20.67
25610;BME280;13479;49.044;8.716;2023-04-10T12:48:25;99271.09;;;21.05;20.23
25610;BME280;13479;49.044;8.716;2023-04-10T12:50:51;99258.75;;;21.17;21.07
25610;BME280;13479;49.044;8.716;2023-04-10T12:53:16;99255.44;;;21.22;20.53
25610;BME280;13479;49.044;8.716;2023-04-10T12:56:04;99260.97;;;21.35;20.23
25610;BME280;13479;49.044;8.716;2023-04-10T12:58:30;99254.91;;;21.62;19.99
25610;BME280;13479;49.044;8.716;2023-04-10T13:01:07;99238.91;;;21.95;20.22
25610;BME280;13479;49.044;8.716;2023-04-10T13:03:37;99237.69;;;22.04;20.43
25610;BME280;13479;49.044;8.716;2023-04-10T13:06:04;99243.50;;;22.08;19.51
25610;BME280;13479;49.044;8.716;2023-04-10T13:08:30;99239.34;;;22.05;19.25
25610;BME280;13479;49.044;8.716;2023-04-10T13:10:57;99239.78;;;22.09;19.01
25610;BME280;13479;49.044;8.716;2023-04-10T13:13:27;99240.81;;;22.08;20.07
25610;BME280;13479;49.044;8.716;2023-04-10T13:15:53;99255.28;;;21.94;19.02
25610;BME280;13479;49.044;8.716;2023-04-10T13:18:19;99239.56;;;21.69;19.08
25610;BME280;13479;49.044;8.716;2023-04-10T13:20:45;99234.44;;;21.45;18.56
25610;BME280;13479;49.044;8.716;2023-04-10T13:23:10;99228.16;;;21.38;19.46
25610;BME280;13479;49.044;8.716;2023-04-10T13:25:37;99222.81;;;21.52;19.49
25610;BME280;13479;49.044;8.716;2023-04-10T13:28:04;99217.34;;;21.67;19.71
25610;BME280;13479;49.044;8.716;2023-04-10T13:30:34;99209.06;;;21.75;19.95
25610;BME280;13479;49.044;8.716;2023-04-10T13:33:00;99200.16;;;21.81;20.20
25610;BME280;13479;49.044;8.716;2023-04-10T13:35:25;99201.22;;;21.94;20.66
25610;BME280;13479;49.044;8.716;2023-04-10T13:37:50;99192.69;;;21.90;20.11
25610;BME280;13479;49.044;8.716;2023-04-10T13:40:20;99201.38;;;21.79;19.92
25610;BME280;13479;49.044;8.716;2023-04-10T13:42:46;99185.78;;;21.74;20.68
25610;BME280;13479;49.044;8.716;2023-04-10T13:45:12;99180.41;;;21.81;20.23
25610;BME280;13479;49.044;8.716;2023-04-10T13:47:37;99177.34;;;21.97;20.37
25610;BME280;13479;49.044;8.716;2023-04-10T13:50:03;99169.88;;;21.99;20.74
25610;BME280;13479;49.044;8.716;2023-04-10T13:52:28;99170.25;;;21.83;20.40
25610;BME280;13479;49.044;8.716;2023-04-10T13:54:53;99157.75;;;21.82;20.67
25610;BME280;13479;49.044;8.716;2023-04-10T13:57:19;99155.47;;;21.85;20.82
25610;BME280;13479;49.044;8.716;2023-04-10T13:59:44;99158.22;;;21.92;20.42
25610;BME280;13479;49.044;8.716;2023-04-10T14:02:09;99155.28;;;21.94;20.29
25610;BME280;13479;49.044;8.716;2023-04-10T14:04:35;99155.94;;;21.96;19.61
25610;BME280;13479;49.044;8.716;2023-04-10T14:07:00;99151.19;;;22.04;20.12
25610;BME280;13479;49.044;8.716;2023-04-10T14:09:26;99141.84;;;22.14;19.85
25610;BME280;13479;49.044;8.716;2023-04-10T14:11:52;99144.56;;;22.20;19.46
25610;BME280;13479;49.044;8.716;2023-04-10T14:14:17;99133.53;;;22.22;20.99
25610;BME280;13479;49.044;8.716;2023-04-10T14:16:43;99134.38;;;22.23;20.73
25610;BME280;13479;49.044;8.716;2023-04-10T14:19:08;99126.25;;;22.16;20.98
25610;BME280;13479;49.044;8.716;2023-04-10T14:21:33;99137.69;;;22.11;20.51
25610;BME280;13479;49.044;8.716;2023-04-10T14:23:59;99127.88;;;21.97;21.11
25610;BME280;13479;49.044;8.716;2023-04-10T14:26:24;99108.91;;;21.83;21.56
25610;BME280;13479;49.044;8.716;2023-04-10T14:28:50;99118.03;;;21.82;21.61
25610;BME280;13479;49.044;8.716;2023-04-10T14:31:16;99123.63;;;21.67;21.57
25610;BME280;13479;49.044;8.716;2023-04-10T14:33:41;99114.41;;;21.55;21.56
25610;BME280;13479;49.044;8.716;2023-04-10T14:36:07;99108.97;;;21.48;22.19
25610;BME280;13479;49.044;8.716;2023-04-10T14:38:32;99104.44;;;21.55;21.70
25610;BME280;13479;49.044;8.716;2023-04-10T14:40:58;99097.97;;;21.56;21.67
25610;BME280;13479;49.044;8.716;2023-04-10T14:43:24;99086.25;;;21.78;21.30
25610;BME280;13479;49.044;8.716;2023-04-10T14:45:49;99090.81;;;21.77;21.57
25610;BME280;13479;49.044;8.716;2023-04-10T14:48:15;99084.16;;;21.73;21.07
25610;BME280;13479;49.044;8.716;2023-04-10T14:50:40;99076.25;;;21.71;21.41
25610;BME280;13479;49.044;8.716;2023-04-10T14:53:05;99080.81;;;21.71;21.52
25610;BME280;13479;49.044;8.716;2023-04-10T14:55:33;99079.69;;;21.58;21.39
25610;BME280;13479;49.044;8.716;2023-04-10T14:57:59;99078.22;;;21.49;21.74
25610;BME280;13479;49.044;8.716;2023-04-10T15:00:24;99069.47;;;21.47;21.75
25610;BME280;13479;49.044;8.716;2023-04-10T15:02:50;99060.31;;;21.41;21.89
25610;BME280;13479;49.044;8.716;2023-04-10T15:05:15;99060.72;;;21.32;22.29
25610;BME280;13479;49.044;8.716;2023-04-10T15:07:41;99051.94;;;21.23;22.28
25610;BME280;13479;49.044;8.716;2023-04-10T15:10:06;99034.44;;;21.12;22.57
25610;BME280;13479;49.044;8.716;2023-04-10T15:12:32;99040.31;;;21.16;22.60
25610;BME280;13479;49.044;8.716;2023-04-10T15:14:57;99030.94;;;21.11;22.45
25610;BME280;13479;49.044;8.716;2023-04-10T15:17:22;99024.72;;;21.11;22.92
25610;BME280;13479;49.044;8.716;2023-04-10T15:19:48;99015.38;;;21.13;22.69
25610;BME280;13479;49.044;8.716;2023-04-10T15:22:13;99030.56;;;21.21;22.30
25610;BME280;13479;49.044;8.716;2023-04-10T15:24:39;99016.00;;;21.16;23.04
25610;BME280;13479;49.044;8.716;2023-04-10T15:27:05;99005.63;;;21.19;23.43
25610;BME280;13479;49.044;8.716;2023-04-10T15:29:30;99007.91;;;21.22;23.86
25610;BME280;13479;49.044;8.716;2023-04-10T15:31:58;98999.66;;;21.31;23.78
25610;BME280;13479;49.044;8.716;2023-04-10T15:34:23;98989.38;;;21.61;23.95
25610;BME280;13479;49.044;8.716;2023-04-10T15:36:49;98984.81;;;21.75;23.68
25610;BME280;13479;49.044;8.716;2023-04-10T15:39:14;98980.66;;;21.86;23.26
25610;BME280;13479;49.044;8.716;2023-04-10T15:41:40;98985.25;;;22.12;22.62
25610;BME280;13479;49.044;8.716;2023-04-10T15:44:05;98984.41;;;22.05;22.97
25610;BME280;13479;49.044;8.716;2023-04-10T15:46:30;98978.19;;;22.18;23.30
25610;BME280;13479;49.044;8.716;2023-04-10T15:48:57;98980.22;;;22.36;24.59
25610;BME280;13479;49.044;8.716;2023-04-10T15:51:23;98983.78;;;22.43;25.11
25610;BME280;13479;49.044;8.716;2023-04-10T15:53:48;98982.75;;;22.44;26.02
25610;BME280;13479;49.044;8.716;2023-04-10T15:56:14;98986.50;;;22.43;26.55
25610;BME280;13479;49.044;8.716;2023-04-10T15:58:40;98992.06;;;22.35;25.81
25610;BME280;13479;49.044;8.716;2023-04-10T16:01:05;98977.72;;;22.28;26.15
25610;BME280;13479;49.044;8.716;2023-04-10T16:03:31;98975.03;;;22.14;27.32
25610;BME280;13479;49.044;8.716;2023-04-10T16:05:56;98979.84;;;22.05;27.85
25610;BME280;13479;49.044;8.716;2023-04-10T16:08:22;98981.91;;;21.97;28.35
25610;BME280;13479;49.044;8.716;2023-04-10T16:10:50;98984.19;;;21.86;28.83
25610;BME280;13479;49.044;8.716;2023-04-10T16:13:15;98982.31;;;21.80;28.66
25610;BME280;13479;49.044;8.716;2023-04-10T16:15:40;98969.84;;;21.66;28.80
25610;BME280;13479;49.044;8.716;2023-04-10T16:18:06;98954.81;;;21.56;29.04
25610;BME280;13479;49.044;8.716;2023-04-10T16:20:34;98941.13;;;21.51;28.97
25610;BME280;13479;49.044;8.716;2023-04-10T16:22:59;98936.09;;;21.35;28.96
25610;BME280;13479;49.044;8.716;2023-04-10T16:25:25;98921.13;;;21.25;28.62
25610;BME280;13479;49.044;8.716;2023-04-10T16:27:55;98921.09;;;21.12;29.54
25610;BME280;13479;49.044;8.716;2023-04-10T16:30:21;98909.00;;;20.94;29.49
25610;BME280;13479;49.044;8.716;2023-04-10T16:32:46;98909.81;;;20.81;29.69
25610;BME280;13479;49.044;8.716;2023-04-10T16:35:11;98905.22;;;20.82;29.85
25610;BME280;13479;49.044;8.716;2023-04-10T16:37:37;98905.19;;;20.75;30.02
25610;BME280;13479;49.044;8.716;2023-04-10T16:40:03;98902.19;;;20.57;30.05
25610;BME280;13479;49.044;8.716;2023-04-10T16:42:29;98900.66;;;20.41;30.98
25610;BME280;13479;49.044;8.716;2023-04-10T16:44:55;98902.00;;;20.23;31.38
25610;BME280;13479;49.044;8.716;2023-04-10T16:47:20;98893.22;;;20.08;30.02
25610;BME280;13479;49.044;8.716;2023-04-10T16:49:45;98888.59;;;20.01;30.68
25610;BME280;13479;49.044;8.716;2023-04-10T16:52:11;98892.97;;;20.02;30.45
25610;BME280;13479;49.044;8.716;2023-04-10T16:54:38;98889.41;;;19.95;30.75
25610;BME280;13479;49.044;8.716;2023-04-10T16:57:03;98900.34;;;19.87;31.55
25610;BME280;13479;49.044;8.716;2023-04-10T16:59:29;98903.13;;;19.79;30.64
25610;BME280;13479;49.044;8.716;2023-04-10T17:01:54;98898.31;;;19.74;31.33
25610;BME280;13479;49.044;8.716;2023-04-10T17:04:19;98904.28;;;19.69;31.07
25610;BME280;13479;49.044;8.716;2023-04-10T17:06:45;98893.41;;;19.56;31.39
25610;BME280;13479;49.044;8.716;2023-04-10T17:09:10;98893.28;;;19.42;31.83
25610;BME280;13479;49.044;8.716;2023-04-10T17:11:35;98885.34;;;19.34;32.45
25610;BME280;13479;49.044;8.716;2023-04-10T17:14:01;98886.38;;;19.11;32.64
25610;BME280;13479;49.044;8.716;2023-04-10T17:16:27;98877.41;;;19.04;33.17
25610;BME280;13479;49.044;8.716;2023-04-10T17:18:52;98890.13;;;18.95;33.48
25610;BME280;13479;49.044;8.716;2023-04-10T17:21:17;98884.25;;;18.92;33.49
25610;BME280;13479;49.044;8.716;2023-04-10T17:23:43;98877.13;;;18.84;33.55
25610;BME280;13479;49.044;8.716;2023-04-10T17:26:12;98872.44;;;18.71;33.81